createdAt,value
2019-04-25T00:09:08.274Z,10.03
2019-04-25T00:24:25.585Z,9.85
2019-04-25T00:39:28.157Z,9.55
2019-04-25T00:54:31.590Z,9.32
2019-04-25T01:09:37.845Z,9.13
2019-04-25T01:24:41.320Z,9.55
2019-04-25T01:39:49.257Z,9.33
2019-04-25T01:54:53.131Z,9.29
2019-04-25T02:09:58.367Z,9.17
2019-04-25T02:25:04.359Z,8.73
2019-04-25T02:40:09.387Z,8.73
2019-04-25T02:55:29.589Z,8.62
2019-04-25T03:10:19.409Z,8.42
2019-04-25T03:25:24.592Z,8.29
2019-04-25T03:40:27.085Z,8.15
2019-04-25T03:55:31.372Z,8.40
2019-04-25T04:10:37.751Z,8.52
2019-04-25T04:25:41.477Z,9.13
2019-04-25T04:40:44.312Z,10.87
2019-04-25T04:55:48.299Z,13.35
2019-04-25T05:10:50.874Z,14.33
2019-04-25T05:25:53.933Z,17.10
2019-04-25T05:41:01.027Z,17.51
2019-04-25T05:56:04.642Z,18.00
2019-04-25T06:11:09.207Z,20.29
2019-04-25T06:26:23.043Z,21.77
2019-04-25T06:41:21.079Z,21.81
2019-04-25T06:56:26.084Z,23.21
2019-04-25T07:11:30.397Z,23.84
2019-04-25T07:26:44.352Z,25.53
2019-04-25T07:41:47.037Z,25.33
2019-04-25T07:56:49.609Z,24.96
2019-04-25T08:11:53.192Z,26.36
2019-04-25T08:26:56.767Z,28.52
2019-04-25T08:41:59.324Z,29.72
2019-04-25T08:57:04.369Z,28.73
2019-04-25T09:12:08.050Z,28.08
2019-04-25T09:27:10.606Z,26.85
2019-04-25T09:42:15.140Z,28.29
2019-04-25T09:57:26.001Z,26.46
2019-04-25T10:12:29.094Z,26.71
2019-04-25T10:27:32.611Z,27.59
2019-04-25T10:42:35.397Z,27.49
2019-04-25T10:57:38.889Z,28.00
2019-04-25T11:12:44.329Z,28.87
2019-04-25T11:27:49.670Z,30.29
2019-04-25T11:42:54.244Z,27.66
2019-04-25T11:57:57.331Z,26.53
2019-04-25T12:12:59.898Z,26.02
2019-04-25T12:28:04.570Z,25.54
2019-04-25T12:43:07.848Z,24.87
2019-04-25T12:58:13.210Z,25.06
2019-04-25T13:13:17.317Z,24.91
2019-04-25T13:28:24.370Z,24.14
2019-04-25T13:43:28.681Z,24.42
2019-04-25T13:58:32.150Z,24.62
2019-04-25T14:13:36.137Z,24.33
2019-04-25T14:28:40.770Z,24.16
2019-04-25T14:43:43.354Z,23.97
2019-04-25T14:58:46.660Z,23.52
2019-04-25T15:13:50.183Z,21.58
2019-04-25T15:28:52.970Z,20.38
2019-04-25T15:42:34.007Z,19.97
2019-04-25T15:52:36.859Z,19.95
2019-04-25T16:02:39.419Z,19.95
2019-04-25T16:12:42.945Z,20.02
2019-04-25T16:22:45.547Z,19.64
2019-04-25T16:32:50.009Z,18.86
2019-04-25T16:42:53.271Z,18.60
2019-04-25T16:52:56.061Z,18.49
2019-04-25T17:02:58.646Z,18.06
2019-04-25T17:13:04.362Z,17.83
2019-04-25T17:23:09.017Z,17.33
2019-04-25T17:33:26.359Z,16.98
2019-04-25T17:43:29.711Z,16.18
2019-04-25T17:53:33.016Z,15.71
2019-04-25T18:03:37.256Z,15.25
2019-04-25T18:13:42.492Z,14.70
2019-04-25T18:23:49.415Z,14.35
2019-04-25T18:33:56.470Z,13.87
2019-04-25T18:44:03.037Z,13.76
2019-04-25T18:54:11.286Z,13.69
2019-04-25T19:14:47.591Z,13.31
2019-04-25T19:24:50.305Z,12.99
2019-04-25T19:34:54.466Z,12.71
2019-04-25T19:44:57.819Z,12.49
2019-04-25T19:55:00.678Z,12.57
2019-04-25T20:05:05.615Z,12.03
2019-04-25T20:15:12.152Z,12.13
2019-04-25T20:25:16.929Z,12.07
2019-04-25T20:35:21.166Z,11.90
2019-04-25T20:45:24.078Z,11.76
2019-04-25T20:55:28.504Z,11.70
2019-04-25T21:05:32.046Z,11.75
2019-04-25T21:15:41.289Z,11.69
2019-04-25T21:25:46.958Z,11.71
2019-04-25T21:35:50.849Z,11.45
2019-04-25T21:45:54.272Z,11.12
2019-04-25T21:55:57.624Z,11.35
2019-04-25T22:06:00.833Z,11.87
2019-04-25T22:16:04.569Z,11.47
2019-04-25T22:26:08.285Z,11.01
2019-04-25T22:36:15.184Z,10.60
2019-04-25T22:46:25.742Z,10.47
2019-04-25T22:56:25.707Z,10.37
2019-04-25T23:06:29.504Z,10.50
2019-04-25T23:16:34.132Z,10.82
2019-04-25T23:37:10.096Z,10.80
2019-04-25T23:47:14.398Z,10.56
2019-04-25T23:57:19.071Z,10.46
